createdAt,value
2017-12-19T00:00:25.492Z,5.68
2017-12-19T00:01:25.381Z,5.70
2017-12-19T00:02:25.306Z,5.57
2017-12-19T00:03:25.214Z,5.66
2017-12-19T00:04:25.120Z,5.67
2017-12-19T00:05:25.028Z,5.63
2017-12-19T00:06:24.951Z,5.68
2017-12-19T00:07:24.873Z,5.60
2017-12-19T00:08:24.767Z,5.63
2017-12-19T00:09:24.688Z,5.63
2017-12-19T00:10:24.614Z,5.70
2017-12-19T00:11:24.508Z,5.70
2017-12-19T00:12:24.422Z,5.66
2017-12-19T00:13:24.336Z,5.66
2017-12-19T00:14:24.252Z,5.64
2017-12-19T00:15:24.166Z,5.64
2017-12-19T00:16:24.066Z,5.64
2017-12-19T00:17:23.986Z,5.63
2017-12-19T00:18:23.889Z,5.70
2017-12-19T00:19:23.810Z,5.66
2017-12-19T00:20:23.719Z,5.68
2017-12-19T00:21:23.633Z,5.64
2017-12-19T00:22:23.542Z,5.75
2017-12-19T00:23:23.453Z,5.68
2017-12-19T00:24:23.379Z,5.73
2017-12-19T00:25:23.274Z,5.64
2017-12-19T00:26:23.191Z,5.74
2017-12-19T00:27:23.107Z,5.73
2017-12-19T00:28:23.012Z,5.74
2017-12-19T00:29:22.925Z,5.77
2017-12-19T00:30:22.855Z,5.81
2017-12-19T00:31:22.752Z,5.77
2017-12-19T00:32:22.665Z,5.70
2017-12-19T00:33:22.576Z,5.75
2017-12-19T00:34:22.484Z,5.75
2017-12-19T00:35:22.400Z,5.59
2017-12-19T00:36:22.317Z,5.77
2017-12-19T00:37:22.228Z,5.85
2017-12-19T00:38:22.139Z,5.81
2017-12-19T00:39:22.047Z,5.74
2017-12-19T00:40:21.961Z,5.86
2017-12-19T00:41:21.870Z,5.71
2017-12-19T00:42:21.786Z,5.71
2017-12-19T00:43:21.697Z,5.73
2017-12-19T00:44:21.612Z,5.71
2017-12-19T00:45:21.519Z,5.67
2017-12-19T00:46:21.433Z,5.73
2017-12-19T00:47:21.354Z,5.74
2017-12-19T00:48:21.259Z,5.75
2017-12-19T00:49:21.195Z,5.85
2017-12-19T00:50:21.906Z,5.82
2017-12-19T00:51:21.002Z,5.82
2017-12-19T00:52:20.907Z,5.74
2017-12-19T00:53:20.819Z,5.73
2017-12-19T00:54:20.735Z,5.75
2017-12-19T00:55:20.641Z,5.78
2017-12-19T00:56:20.566Z,5.78
2017-12-19T00:57:20.470Z,5.81
2017-12-19T00:58:20.382Z,5.75
2017-12-19T00:59:20.286Z,5.73
2017-12-19T01:00:20.209Z,5.83
2017-12-19T01:01:20.116Z,5.73
2017-12-19T01:02:20.033Z,5.86
2017-12-19T01:03:19.964Z,5.78
2017-12-19T01:04:19.853Z,5.75
2017-12-19T01:05:19.781Z,5.73
2017-12-19T01:06:19.684Z,5.81
2017-12-19T01:07:19.596Z,5.77
2017-12-19T01:08:19.511Z,5.74
2017-12-19T01:09:19.427Z,5.75
2017-12-19T01:10:19.335Z,5.81
2017-12-19T01:11:19.248Z,5.73
2017-12-19T01:12:19.152Z,5.77
2017-12-19T01:13:19.080Z,5.75
2017-12-19T01:14:18.972Z,5.71
2017-12-19T01:15:18.908Z,5.77
2017-12-19T01:16:18.807Z,5.75
2017-12-19T01:17:18.718Z,5.82
2017-12-19T01:18:18.622Z,5.75
2017-12-19T01:19:18.541Z,5.66
2017-12-19T01:20:18.507Z,5.67
2017-12-19T01:21:18.372Z,5.71
2017-12-19T01:22:18.277Z,5.70
2017-12-19T01:23:18.191Z,5.77
2017-12-19T01:24:18.102Z,5.77
2017-12-19T01:25:18.006Z,5.81
2017-12-19T01:26:17.920Z,5.82
2017-12-19T01:27:17.841Z,5.83
2017-12-19T01:28:17.747Z,5.77
2017-12-19T01:29:17.669Z,5.73
2017-12-19T01:30:17.582Z,5.77
2017-12-19T01:31:17.482Z,5.83
2017-12-19T01:32:17.390Z,5.82
2017-12-19T01:33:17.314Z,5.88
2017-12-19T01:34:17.230Z,5.78
2017-12-19T01:35:17.141Z,5.81
2017-12-19T01:36:17.051Z,5.74
2017-12-19T01:37:16.962Z,5.78
2017-12-19T01:38:16.865Z,5.89
2017-12-19T01:39:16.777Z,5.81
2017-12-19T01:40:16.692Z,5.88
2017-12-19T01:41:16.601Z,5.91
2017-12-19T01:42:16.519Z,5.82
2017-12-19T01:43:16.425Z,5.88
2017-12-19T01:44:16.337Z,5.86
2017-12-19T01:45:16.250Z,5.86
2017-12-19T01:46:16.165Z,5.93
2017-12-19T01:47:16.076Z,5.85
2017-12-19T01:48:15.988Z,5.77
2017-12-19T01:49:16.490Z,5.78
2017-12-19T01:50:15.814Z,5.71
2017-12-19T01:51:15.722Z,5.74
2017-12-19T01:52:15.639Z,5.75
2017-12-19T01:53:15.549Z,5.86
2017-12-19T01:54:15.470Z,6.00
2017-12-19T01:55:15.371Z,6.00
2017-12-19T01:56:15.291Z,5.95
2017-12-19T01:57:15.196Z,5.92
2017-12-19T01:58:15.106Z,5.91
2017-12-19T01:59:15.017Z,6.00
2017-12-19T02:00:14.952Z,6.01
2017-12-19T02:01:14.847Z,5.93
2017-12-19T02:02:14.759Z,5.91
2017-12-19T02:03:14.676Z,5.93
2017-12-19T02:04:14.583Z,5.88
2017-12-19T02:05:14.495Z,5.74
2017-12-19T02:06:14.406Z,5.75
2017-12-19T02:07:14.311Z,5.74
2017-12-19T02:08:14.228Z,5.77
2017-12-19T02:09:14.140Z,5.82
2017-12-19T02:10:14.054Z,5.83
2017-12-19T02:11:13.967Z,5.86
2017-12-19T02:12:13.878Z,5.83
2017-12-19T02:13:13.790Z,5.86
2017-12-19T02:14:13.696Z,5.82
2017-12-19T02:15:13.616Z,5.93
2017-12-19T02:16:13.526Z,5.82
2017-12-19T02:17:13.438Z,5.88
2017-12-19T02:18:13.364Z,5.89
2017-12-19T02:19:13.275Z,5.86
2017-12-19T02:20:13.176Z,5.83
2017-12-19T02:21:13.088Z,5.91
2017-12-19T02:22:12.998Z,5.89
2017-12-19T02:23:12.903Z,5.83
2017-12-19T02:24:12.833Z,5.82
2017-12-19T02:25:12.740Z,5.82
2017-12-19T02:26:12.647Z,5.88
2017-12-19T02:27:12.558Z,5.82
2017-12-19T02:28:12.494Z,5.81
2017-12-19T02:29:12.390Z,5.74
2017-12-19T02:30:12.310Z,5.85
2017-12-19T02:31:12.214Z,5.81
2017-12-19T02:32:12.121Z,5.86
2017-12-19T02:33:12.042Z,5.88
2017-12-19T02:34:11.946Z,5.86
2017-12-19T02:35:11.862Z,5.83
2017-12-19T02:36:11.778Z,5.83
2017-12-19T02:37:11.688Z,5.88
2017-12-19T02:38:11.600Z,5.82
2017-12-19T02:39:11.508Z,5.86
2017-12-19T02:40:11.425Z,5.91
2017-12-19T02:41:11.333Z,5.81
2017-12-19T02:42:11.248Z,5.86
2017-12-19T02:43:11.163Z,5.85
2017-12-19T02:44:11.079Z,5.95
2017-12-19T02:45:10.987Z,6.04
2017-12-19T02:46:10.895Z,5.78
2017-12-19T02:47:10.856Z,5.83
2017-12-19T02:48:11.051Z,5.82
2017-12-19T02:49:10.635Z,5.88
2017-12-19T02:50:10.542Z,6.14
2017-12-19T02:51:10.465Z,6.14
2017-12-19T02:52:10.370Z,6.18
2017-12-19T02:53:10.275Z,6.09
2017-12-19T02:54:10.184Z,6.11
2017-12-19T02:55:10.106Z,6.16
2017-12-19T02:56:10.013Z,6.03
2017-12-19T02:57:09.922Z,5.91
2017-12-19T02:58:09.831Z,5.92
2017-12-19T02:59:09.743Z,5.91
2017-12-19T03:00:09.658Z,5.88
2017-12-19T03:01:09.580Z,5.92
2017-12-19T03:02:09.490Z,5.88
2017-12-19T03:03:09.389Z,5.86
2017-12-19T03:04:09.303Z,5.74
2017-12-19T03:05:09.211Z,5.77
2017-12-19T03:06:09.125Z,5.78
2017-12-19T03:07:09.038Z,5.77
2017-12-19T03:08:08.952Z,5.88
2017-12-19T03:09:08.870Z,5.91
2017-12-19T03:10:08.776Z,5.89
2017-12-19T03:11:08.682Z,5.89
2017-12-19T03:12:08.597Z,5.78
2017-12-19T03:13:08.512Z,5.85
2017-12-19T03:14:08.427Z,5.91
2017-12-19T03:15:08.346Z,5.91
2017-12-19T03:16:08.244Z,5.89
2017-12-19T03:17:08.160Z,5.89
2017-12-19T03:18:08.077Z,5.91
2017-12-19T03:19:07.985Z,5.88
2017-12-19T03:20:07.900Z,5.91
2017-12-19T03:21:07.812Z,5.82
2017-12-19T03:22:07.720Z,5.83
2017-12-19T03:23:07.633Z,5.81
2017-12-19T03:24:07.550Z,5.88
2017-12-19T03:25:07.455Z,5.89
2017-12-19T03:26:08.193Z,5.93
2017-12-19T03:27:07.297Z,5.95
2017-12-19T03:28:07.199Z,5.83
2017-12-19T03:29:07.104Z,5.89
2017-12-19T03:30:07.016Z,5.83
2017-12-19T03:31:06.936Z,5.86
2017-12-19T03:32:06.844Z,5.86
2017-12-19T03:33:06.789Z,5.88
2017-12-19T03:34:06.672Z,5.86
2017-12-19T03:35:06.581Z,5.85
2017-12-19T03:36:06.492Z,5.89
2017-12-19T03:37:06.402Z,5.85
2017-12-19T03:38:06.320Z,5.77
2017-12-19T03:39:06.230Z,5.92
2017-12-19T03:40:06.146Z,5.81
2017-12-19T03:41:06.056Z,5.77
2017-12-19T03:42:05.963Z,5.82
2017-12-19T03:43:05.884Z,5.92
2017-12-19T03:44:05.794Z,5.85
2017-12-19T03:45:05.705Z,5.83
2017-12-19T03:46:05.622Z,5.92
2017-12-19T03:47:05.633Z,5.86
2017-12-19T03:48:05.443Z,5.89
2017-12-19T03:49:05.354Z,5.77
2017-12-19T03:50:05.272Z,5.88
2017-12-19T03:51:05.179Z,5.86
2017-12-19T03:52:05.091Z,5.91
2017-12-19T03:53:05.009Z,5.95
2017-12-19T03:54:04.919Z,5.83
2017-12-19T03:55:04.835Z,5.88
2017-12-19T03:56:04.749Z,5.82
2017-12-19T03:57:04.661Z,5.77
2017-12-19T03:58:04.559Z,5.82
2017-12-19T03:59:04.482Z,5.91
2017-12-19T04:00:04.387Z,5.89
2017-12-19T04:01:04.300Z,5.89
2017-12-19T04:02:04.229Z,5.91
2017-12-19T04:03:04.196Z,5.89
2017-12-19T04:04:04.046Z,5.91
2017-12-19T04:05:03.954Z,5.96
2017-12-19T04:06:03.859Z,5.93
2017-12-19T04:07:03.769Z,5.86
2017-12-19T04:08:03.692Z,5.92
2017-12-19T04:09:03.601Z,5.93
2017-12-19T04:10:03.523Z,5.78
2017-12-19T04:11:03.437Z,5.85
2017-12-19T04:12:03.338Z,5.86
2017-12-19T04:13:03.251Z,5.92
2017-12-19T04:14:03.156Z,5.96
2017-12-19T04:15:03.069Z,5.95
2017-12-19T04:16:02.993Z,6.11
2017-12-19T04:17:02.908Z,6.14
2017-12-19T04:18:02.813Z,6.10
2017-12-19T04:19:02.717Z,6.06
2017-12-19T04:20:02.643Z,5.96
2017-12-19T04:21:02.547Z,5.95
2017-12-19T04:22:02.470Z,5.95
2017-12-19T04:23:02.369Z,5.85
2017-12-19T04:24:02.301Z,5.82
2017-12-19T04:25:02.193Z,5.91
2017-12-19T04:26:02.110Z,5.92
2017-12-19T04:27:02.021Z,5.88
2017-12-19T04:28:01.932Z,5.83
2017-12-19T04:29:01.853Z,5.81
2017-12-19T04:30:01.755Z,5.89
2017-12-19T04:31:01.671Z,5.92
2017-12-19T04:32:01.604Z,5.96
2017-12-19T04:33:01.495Z,5.96
2017-12-19T04:34:01.404Z,6.03
2017-12-19T04:35:01.326Z,5.98
2017-12-19T04:36:01.233Z,5.95
2017-12-19T04:37:01.149Z,5.93
2017-12-19T04:38:01.056Z,6.01
2017-12-19T04:39:00.962Z,5.92
2017-12-19T04:40:00.909Z,5.91
2017-12-19T04:41:00.789Z,5.92
2017-12-19T04:42:00.712Z,6.00
2017-12-19T04:43:00.637Z,5.96
2017-12-19T04:44:00.532Z,5.98
2017-12-19T04:45:00.444Z,5.92
2017-12-19T04:46:00.368Z,5.96
2017-12-19T04:47:00.267Z,5.98
2017-12-19T04:48:00.180Z,5.89
2017-12-19T04:49:00.094Z,6.00
2017-12-19T04:50:00.000Z,5.95
2017-12-19T04:50:59.912Z,5.98
2017-12-19T04:51:59.826Z,5.93
2017-12-19T04:52:59.739Z,5.89
2017-12-19T04:53:59.653Z,5.86
2017-12-19T04:54:59.576Z,5.89
2017-12-19T04:55:59.475Z,5.95
2017-12-19T04:56:59.387Z,5.88
2017-12-19T04:57:59.299Z,5.89
2017-12-19T04:58:59.214Z,5.91
2017-12-19T04:59:59.127Z,5.92
2017-12-19T05:00:59.049Z,5.89
2017-12-19T05:01:58.954Z,5.89
2017-12-19T05:02:58.861Z,5.91
2017-12-19T05:03:58.779Z,5.82
2017-12-19T05:04:58.687Z,5.83
2017-12-19T05:05:58.653Z,5.86
2017-12-19T05:06:58.508Z,5.85
2017-12-19T05:07:58.426Z,5.81
2017-12-19T05:08:58.331Z,5.82
2017-12-19T05:09:58.251Z,5.73
2017-12-19T05:10:58.162Z,5.73
2017-12-19T05:11:58.073Z,5.74
2017-12-19T05:12:57.981Z,5.70
2017-12-19T05:13:57.898Z,5.78
2017-12-19T05:14:57.809Z,5.73
2017-12-19T05:15:58.495Z,5.74
2017-12-19T05:16:57.633Z,5.82
2017-12-19T05:17:57.547Z,5.74
2017-12-19T05:18:57.470Z,5.75
2017-12-19T05:19:57.371Z,5.73
2017-12-19T05:20:57.280Z,5.81
2017-12-19T05:21:57.195Z,5.70
2017-12-19T05:22:57.106Z,5.74
2017-12-19T05:23:57.021Z,5.70
2017-12-19T05:24:56.929Z,5.71
2017-12-19T05:25:56.847Z,5.78
2017-12-19T05:26:56.756Z,5.75
2017-12-19T05:27:56.674Z,5.70
2017-12-19T05:28:56.578Z,5.73
2017-12-19T05:29:56.487Z,5.63
2017-12-19T05:30:56.401Z,5.70
2017-12-19T05:31:56.320Z,5.81
2017-12-19T05:32:56.232Z,5.74
2017-12-19T05:33:56.140Z,5.78
2017-12-19T05:34:56.053Z,5.73
2017-12-19T05:35:55.967Z,5.74
2017-12-19T05:36:55.877Z,5.74
2017-12-19T05:37:55.787Z,5.81
2017-12-19T05:38:55.697Z,5.75
2017-12-19T05:39:55.615Z,5.68
2017-12-19T05:40:55.531Z,5.77
2017-12-19T05:41:55.434Z,5.75
2017-12-19T05:42:55.345Z,5.74
2017-12-19T05:43:55.261Z,5.66
2017-12-19T05:44:55.176Z,5.92
2017-12-19T05:45:55.084Z,5.85
2017-12-19T05:46:55.007Z,5.82
2017-12-19T05:47:55.031Z,5.70
2017-12-19T05:48:54.836Z,5.81
2017-12-19T05:49:54.739Z,5.66
2017-12-19T05:50:54.656Z,5.60
2017-12-19T05:51:54.555Z,5.67
2017-12-19T05:52:54.471Z,5.68
2017-12-19T05:53:54.383Z,5.63
2017-12-19T05:54:54.291Z,5.70
2017-12-19T05:55:54.205Z,5.83
2017-12-19T05:56:54.121Z,5.71
2017-12-19T05:57:54.027Z,5.66
2017-12-19T05:58:53.940Z,5.71
2017-12-19T05:59:53.851Z,5.60
2017-12-19T06:00:53.764Z,5.56
2017-12-19T06:01:53.683Z,5.56
2017-12-19T06:02:53.601Z,5.53
2017-12-19T06:03:53.504Z,5.57
2017-12-19T06:04:53.421Z,5.55
2017-12-19T06:05:53.322Z,5.63
2017-12-19T06:06:53.234Z,5.56
2017-12-19T06:07:53.151Z,5.67
2017-12-19T06:08:53.059Z,5.59
2017-12-19T06:09:52.977Z,5.63
2017-12-19T06:10:52.880Z,5.60
2017-12-19T06:11:52.802Z,5.59
2017-12-19T06:12:52.710Z,5.60
2017-12-19T06:13:52.619Z,5.57
2017-12-19T06:14:53.094Z,5.53
2017-12-19T06:15:52.443Z,5.59
2017-12-19T06:16:52.361Z,5.63
2017-12-19T06:17:52.271Z,5.68
2017-12-19T06:18:52.188Z,5.57
2017-12-19T06:19:52.094Z,5.56
2017-12-19T06:20:52.005Z,5.55
2017-12-19T06:21:51.929Z,5.57
2017-12-19T06:22:51.827Z,5.60
2017-12-19T06:23:51.743Z,5.64
2017-12-19T06:24:51.657Z,5.52
2017-12-19T06:25:51.570Z,5.57
2017-12-19T06:26:51.481Z,5.66
2017-12-19T06:27:51.385Z,5.57
2017-12-19T06:28:51.302Z,5.63
2017-12-19T06:29:51.214Z,5.59
2017-12-19T06:30:51.139Z,5.56
2017-12-19T06:31:51.038Z,5.49
2017-12-19T06:32:50.954Z,5.50
2017-12-19T06:33:50.879Z,5.63
2017-12-19T06:34:50.778Z,5.55
2017-12-19T06:35:50.688Z,5.55
2017-12-19T06:36:50.599Z,5.60
2017-12-19T06:37:50.517Z,5.53
2017-12-19T06:38:50.431Z,5.55
2017-12-19T06:39:50.333Z,5.57
2017-12-19T06:40:50.246Z,5.60
2017-12-19T06:41:50.160Z,5.57
2017-12-19T06:42:50.074Z,5.64
2017-12-19T06:43:49.983Z,5.55
2017-12-19T06:44:49.914Z,5.56
2017-12-19T06:45:49.818Z,5.55
2017-12-19T06:46:49.722Z,5.67
2017-12-19T06:47:49.631Z,5.52
2017-12-19T06:48:49.549Z,5.60
2017-12-19T06:49:49.455Z,5.59
2017-12-19T06:50:49.374Z,5.60
2017-12-19T06:51:49.282Z,5.57
2017-12-19T06:52:49.195Z,5.59
2017-12-19T06:53:49.111Z,5.66
2017-12-19T06:54:49.016Z,5.66
2017-12-19T06:55:48.928Z,5.55
2017-12-19T06:56:48.847Z,5.60
2017-12-19T06:57:48.782Z,5.64
2017-12-19T06:58:48.669Z,5.55
2017-12-19T06:59:48.593Z,5.55
2017-12-19T07:00:48.516Z,5.59
2017-12-19T07:01:48.400Z,5.74
2017-12-19T07:02:48.349Z,5.67
2017-12-19T07:03:48.228Z,5.67
2017-12-19T07:04:48.142Z,5.64
2017-12-19T07:05:48.049Z,5.55
2017-12-19T07:06:47.969Z,5.53
2017-12-19T07:07:47.875Z,5.60
2017-12-19T07:08:47.794Z,5.60
2017-12-19T07:09:47.711Z,5.56
2017-12-19T07:10:47.679Z,5.60
2017-12-19T07:11:47.541Z,5.63
2017-12-19T07:12:47.440Z,5.66
2017-12-19T07:13:47.883Z,5.63
2017-12-19T07:14:47.264Z,5.67
2017-12-19T07:15:47.219Z,5.68
2017-12-19T07:16:47.096Z,5.56
2017-12-19T07:17:47.008Z,5.57
2017-12-19T07:18:46.909Z,5.52
2017-12-19T07:19:46.831Z,5.60
2017-12-19T07:20:46.732Z,5.60
2017-12-19T07:21:46.645Z,5.75
2017-12-19T07:22:46.559Z,5.64
2017-12-19T07:23:46.478Z,5.67
2017-12-19T07:24:46.390Z,5.71
2017-12-19T07:25:46.291Z,5.88
2017-12-19T07:26:46.203Z,6.09
2017-12-19T07:27:46.146Z,6.11
2017-12-19T07:28:46.023Z,5.98
2017-12-19T07:29:45.954Z,6.10
2017-12-19T07:30:45.854Z,5.93
2017-12-19T07:31:45.757Z,5.93
2017-12-19T07:32:45.673Z,5.88
2017-12-19T07:33:45.585Z,5.85
2017-12-19T07:34:45.493Z,5.78
2017-12-19T07:35:45.422Z,5.78
2017-12-19T07:36:45.327Z,5.74
2017-12-19T07:37:45.231Z,5.77
2017-12-19T07:38:45.140Z,5.77
2017-12-19T07:39:45.053Z,5.83
2017-12-19T07:40:44.968Z,5.77
2017-12-19T07:41:44.875Z,5.78
2017-12-19T07:42:44.792Z,5.74
2017-12-19T07:43:44.698Z,5.71
2017-12-19T07:44:44.620Z,5.70
2017-12-19T07:45:44.524Z,5.71
2017-12-19T07:46:44.435Z,5.77
2017-12-19T07:47:44.352Z,5.85
2017-12-19T07:48:44.257Z,5.83
2017-12-19T07:49:44.169Z,5.86
2017-12-19T07:50:44.086Z,5.88
2017-12-19T07:51:43.998Z,5.74
2017-12-19T07:52:43.910Z,5.93
2017-12-19T07:53:43.827Z,5.91
2017-12-19T07:54:43.729Z,5.89
2017-12-19T07:55:43.640Z,5.91
2017-12-19T07:56:43.553Z,5.88
2017-12-19T07:57:43.529Z,5.88
2017-12-19T07:58:43.372Z,5.93
2017-12-19T07:59:43.301Z,5.98
2017-12-19T08:00:43.202Z,5.86
2017-12-19T08:01:43.110Z,5.85
2017-12-19T08:02:43.021Z,5.74
2017-12-19T08:03:42.939Z,5.75
2017-12-19T08:04:42.859Z,5.74
2017-12-19T08:05:42.763Z,5.70
2017-12-19T08:06:42.678Z,5.68
2017-12-19T08:07:42.581Z,5.63
2017-12-19T08:08:42.502Z,5.66
2017-12-19T08:09:42.450Z,5.82
2017-12-19T08:10:42.323Z,5.86
2017-12-19T08:11:42.233Z,5.74
2017-12-19T08:12:42.485Z,5.83
2017-12-19T08:13:42.063Z,5.83
2017-12-19T08:14:41.962Z,5.81
2017-12-19T08:15:41.887Z,5.88
2017-12-19T08:16:41.795Z,5.85
2017-12-19T08:17:41.706Z,5.82
2017-12-19T08:18:41.615Z,5.86
2017-12-19T08:19:41.531Z,5.85
2017-12-19T08:20:41.444Z,5.71
2017-12-19T08:21:41.364Z,5.96
2017-12-19T08:22:41.266Z,5.91
2017-12-19T08:23:41.175Z,5.88
2017-12-19T08:24:41.090Z,5.86
2017-12-19T08:25:41.001Z,5.82
2017-12-19T08:26:40.913Z,5.86
2017-12-19T08:27:40.827Z,5.86
2017-12-19T08:28:40.739Z,5.86
2017-12-19T08:29:40.660Z,5.83
2017-12-19T08:30:40.566Z,5.91
2017-12-19T08:31:40.480Z,5.89
2017-12-19T08:32:40.403Z,5.91
2017-12-19T08:33:40.301Z,5.89
2017-12-19T08:34:40.216Z,5.88
2017-12-19T08:35:40.122Z,5.91
2017-12-19T08:36:40.045Z,5.85
2017-12-19T08:37:39.953Z,5.88
2017-12-19T08:38:39.864Z,5.85
2017-12-19T08:39:39.794Z,5.89
2017-12-19T08:40:39.699Z,5.85
2017-12-19T08:41:39.606Z,5.98
2017-12-19T08:42:39.514Z,5.92
2017-12-19T08:43:39.427Z,5.89
2017-12-19T08:44:39.345Z,5.85
2017-12-19T08:45:39.252Z,5.89
2017-12-19T08:46:39.165Z,6.07
2017-12-19T08:47:39.082Z,6.04
2017-12-19T08:48:38.986Z,6.04
2017-12-19T08:49:38.942Z,6.01
2017-12-19T08:50:38.810Z,6.06
2017-12-19T08:51:38.725Z,6.21
2017-12-19T08:52:38.636Z,6.14
2017-12-19T08:53:38.547Z,6.07
2017-12-19T08:54:38.465Z,6.00
2017-12-19T08:55:38.374Z,6.01
2017-12-19T08:56:38.280Z,6.03
2017-12-19T08:57:38.198Z,5.98
2017-12-19T08:58:38.112Z,5.95
2017-12-19T08:59:38.026Z,5.91
2017-12-19T09:00:37.929Z,6.10
2017-12-19T09:01:37.849Z,6.21
2017-12-19T09:02:37.763Z,6.22
2017-12-19T09:03:37.665Z,6.32
2017-12-19T09:04:37.585Z,6.16
2017-12-19T09:05:37.514Z,6.16
2017-12-19T09:06:37.403Z,6.13
2017-12-19T09:07:37.324Z,6.06
2017-12-19T09:08:37.222Z,6.19
2017-12-19T09:09:37.134Z,6.10
2017-12-19T09:10:37.069Z,6.04
2017-12-19T09:11:37.071Z,6.01
2017-12-19T09:12:36.881Z,6.01
2017-12-19T09:13:36.782Z,6.04
2017-12-19T09:14:36.695Z,6.18
2017-12-19T09:15:36.617Z,6.13
2017-12-19T09:16:36.519Z,6.14
2017-12-19T09:17:36.436Z,6.11
2017-12-19T09:18:36.344Z,6.13
2017-12-19T09:19:36.251Z,6.14
2017-12-19T09:20:36.168Z,6.11
2017-12-19T09:21:36.118Z,6.19
2017-12-19T09:22:35.994Z,6.13
2017-12-19T09:23:35.900Z,6.13
2017-12-19T09:24:35.819Z,6.14
2017-12-19T09:25:35.730Z,6.13
2017-12-19T09:26:35.648Z,6.07
2017-12-19T09:27:35.562Z,6.10
2017-12-19T09:28:35.468Z,6.40
2017-12-19T09:29:35.377Z,6.29
2017-12-19T09:30:35.294Z,6.22
2017-12-19T09:31:35.224Z,6.29
2017-12-19T09:32:35.108Z,6.28
2017-12-19T09:33:35.022Z,6.18
2017-12-19T09:34:34.943Z,6.14
2017-12-19T09:35:34.849Z,6.28
2017-12-19T09:36:34.767Z,6.14
2017-12-19T09:37:34.676Z,6.13
2017-12-19T09:38:34.598Z,6.13
2017-12-19T09:39:34.510Z,6.13
2017-12-19T09:40:34.412Z,6.18
2017-12-19T09:41:34.346Z,6.18
2017-12-19T09:42:34.233Z,6.07
2017-12-19T09:43:34.152Z,6.19
2017-12-19T09:44:34.066Z,6.21
2017-12-19T09:45:33.979Z,6.22
2017-12-19T09:46:33.883Z,6.32
2017-12-19T09:47:33.802Z,6.28
2017-12-19T09:48:33.718Z,6.19
2017-12-19T09:49:33.624Z,6.16
2017-12-19T09:50:33.543Z,6.32
2017-12-19T09:51:33.454Z,6.30
2017-12-19T09:52:33.374Z,6.36
2017-12-19T09:53:33.279Z,6.19
2017-12-19T09:54:33.186Z,6.10
2017-12-19T09:55:33.098Z,6.10
2017-12-19T09:56:33.024Z,6.14
2017-12-19T09:57:32.930Z,6.19
2017-12-19T09:58:32.828Z,6.25
2017-12-19T09:59:32.746Z,6.35
2017-12-19T10:00:32.657Z,6.28
2017-12-19T10:01:32.575Z,6.19
2017-12-19T10:02:32.481Z,6.35
2017-12-19T10:03:32.407Z,6.21
2017-12-19T10:04:32.304Z,6.14
2017-12-19T10:05:32.226Z,6.16
2017-12-19T10:06:32.132Z,6.14
2017-12-19T10:07:32.042Z,6.29
2017-12-19T10:08:31.961Z,6.43
2017-12-19T10:09:31.871Z,6.41
2017-12-19T10:10:31.796Z,6.41
2017-12-19T10:11:31.693Z,6.36
2017-12-19T10:12:31.606Z,6.35
2017-12-19T10:13:31.515Z,6.26
2017-12-19T10:14:31.425Z,6.14
2017-12-19T10:15:31.341Z,6.22
2017-12-19T10:16:31.265Z,6.14
2017-12-19T10:17:31.176Z,6.33
2017-12-19T10:18:31.085Z,6.36
2017-12-19T10:19:30.992Z,6.19
2017-12-19T10:20:30.909Z,6.19
2017-12-19T10:21:30.816Z,6.35
2017-12-19T10:22:30.732Z,6.32
2017-12-19T10:23:30.643Z,6.33
2017-12-19T10:24:30.557Z,6.16
2017-12-19T10:25:30.474Z,6.21
2017-12-19T10:26:30.384Z,6.22
2017-12-19T10:27:30.315Z,6.19
2017-12-19T10:28:30.202Z,6.19
2017-12-19T10:29:30.130Z,6.16
2017-12-19T10:30:30.035Z,6.25
2017-12-19T10:31:29.947Z,6.21
2017-12-19T10:32:29.858Z,6.35
2017-12-19T10:33:29.770Z,6.32
2017-12-19T10:34:29.675Z,6.35
2017-12-19T10:35:29.592Z,6.41
2017-12-19T10:36:29.507Z,6.38
2017-12-19T10:37:29.418Z,6.41
2017-12-19T10:38:29.334Z,6.44
2017-12-19T10:39:29.239Z,6.44
2017-12-19T10:40:29.949Z,6.43
2017-12-19T10:41:29.081Z,6.48
2017-12-19T10:42:28.981Z,6.43
2017-12-19T10:43:28.901Z,6.40
2017-12-19T10:44:28.810Z,6.43
2017-12-19T10:45:28.721Z,6.44
2017-12-19T10:46:28.627Z,6.44
2017-12-19T10:47:28.546Z,6.41
2017-12-19T10:48:28.458Z,6.41
2017-12-19T10:49:28.372Z,6.40
2017-12-19T10:50:28.285Z,6.54
2017-12-19T10:51:28.199Z,6.48
2017-12-19T10:52:28.117Z,6.46
2017-12-19T10:53:28.024Z,6.62
2017-12-19T10:54:27.941Z,6.54
2017-12-19T10:55:27.869Z,6.46
2017-12-19T10:56:27.771Z,6.41
2017-12-19T10:57:27.673Z,6.32
2017-12-19T10:58:27.582Z,6.41
2017-12-19T10:59:27.506Z,6.43
2017-12-19T11:00:27.409Z,6.41
2017-12-19T11:01:27.328Z,6.56
2017-12-19T11:02:27.235Z,6.47
2017-12-19T11:03:27.162Z,6.48
2017-12-19T11:04:27.069Z,6.59
2017-12-19T11:05:26.981Z,6.65
2017-12-19T11:06:26.911Z,6.54
2017-12-19T11:07:26.812Z,6.53
2017-12-19T11:08:26.714Z,6.54
2017-12-19T11:09:26.622Z,6.47
2017-12-19T11:10:26.538Z,6.44
2017-12-19T11:11:26.450Z,6.51
2017-12-19T11:12:26.362Z,6.54
2017-12-19T11:13:26.273Z,6.58
2017-12-19T11:14:26.184Z,6.50
2017-12-19T11:15:26.098Z,6.61
2017-12-19T11:16:26.039Z,6.68
2017-12-19T11:17:25.927Z,6.65
2017-12-19T11:18:25.847Z,6.59
2017-12-19T11:19:25.748Z,6.51
2017-12-19T11:20:25.658Z,6.62
2017-12-19T11:21:25.583Z,6.66
2017-12-19T11:22:25.479Z,6.72
2017-12-19T11:23:25.400Z,6.76
2017-12-19T11:24:25.315Z,6.66
2017-12-19T11:25:25.226Z,6.66
2017-12-19T11:26:25.137Z,6.77
2017-12-19T11:27:25.060Z,6.71
2017-12-19T11:28:24.963Z,6.72
2017-12-19T11:29:24.883Z,6.72
2017-12-19T11:30:24.786Z,6.63
2017-12-19T11:31:24.698Z,6.47
2017-12-19T11:32:24.629Z,6.50
2017-12-19T11:33:24.524Z,6.51
2017-12-19T11:34:24.434Z,6.48
2017-12-19T11:35:24.353Z,6.63
2017-12-19T11:36:24.261Z,6.66
2017-12-19T11:37:24.180Z,6.66
2017-12-19T11:38:24.085Z,6.69
2017-12-19T11:39:24.530Z,6.83
2017-12-19T11:40:23.918Z,6.77
2017-12-19T11:41:23.824Z,6.66
2017-12-19T11:42:23.754Z,6.66
2017-12-19T11:43:23.652Z,6.65
2017-12-19T11:44:23.573Z,6.68
2017-12-19T11:45:23.493Z,6.63
2017-12-19T11:46:23.386Z,6.53
2017-12-19T11:47:23.303Z,6.61
2017-12-19T11:48:23.229Z,6.62
2017-12-19T11:49:23.120Z,6.59
2017-12-19T11:50:23.034Z,6.65
2017-12-19T11:51:22.945Z,6.69
2017-12-19T11:52:22.861Z,6.59
2017-12-19T11:53:22.778Z,6.62
2017-12-19T11:54:22.689Z,6.68
2017-12-19T11:55:22.596Z,6.66
2017-12-19T11:56:22.517Z,6.58
2017-12-19T11:57:22.468Z,6.65
2017-12-19T11:58:22.363Z,6.53
2017-12-19T11:59:22.251Z,6.61
2017-12-19T12:00:22.172Z,6.66
2017-12-19T12:01:22.083Z,6.53
2017-12-19T12:02:21.986Z,6.58
2017-12-19T12:03:21.897Z,6.61
2017-12-19T12:04:21.813Z,6.47
2017-12-19T12:05:21.732Z,6.53
2017-12-19T12:06:21.641Z,6.51
2017-12-19T12:07:21.590Z,6.65
2017-12-19T12:08:21.464Z,6.62
2017-12-19T12:09:21.384Z,6.63
2017-12-19T12:10:21.294Z,6.59
2017-12-19T12:11:21.204Z,6.69
2017-12-19T12:12:21.118Z,6.69
2017-12-19T12:13:21.030Z,6.68
2017-12-19T12:14:20.939Z,6.61
2017-12-19T12:15:20.862Z,6.65
2017-12-19T12:16:20.767Z,6.66
2017-12-19T12:17:20.680Z,6.54
2017-12-19T12:18:20.593Z,6.66
2017-12-19T12:19:20.525Z,6.65
2017-12-19T12:20:20.428Z,6.68
2017-12-19T12:21:20.326Z,6.71
2017-12-19T12:22:20.244Z,6.73
2017-12-19T12:23:20.166Z,6.66
2017-12-19T12:24:20.070Z,6.72
2017-12-19T12:25:19.997Z,6.71
2017-12-19T12:26:19.893Z,6.71
2017-12-19T12:27:19.810Z,6.76
2017-12-19T12:28:19.725Z,6.69
2017-12-19T12:29:19.634Z,6.73
2017-12-19T12:30:19.564Z,6.79
2017-12-19T12:31:19.458Z,6.76
2017-12-19T12:32:19.388Z,6.72
2017-12-19T12:33:19.288Z,6.68
2017-12-19T12:34:19.197Z,6.72
2017-12-19T12:35:19.117Z,6.71
2017-12-19T12:36:19.043Z,6.77
2017-12-19T12:37:18.939Z,6.71
2017-12-19T12:38:19.109Z,6.83
2017-12-19T12:39:18.769Z,6.71
2017-12-19T12:40:18.681Z,6.79
2017-12-19T12:41:18.603Z,6.71
2017-12-19T12:42:18.506Z,6.71
2017-12-19T12:43:18.416Z,6.63
2017-12-19T12:44:18.333Z,6.72
2017-12-19T12:45:18.247Z,6.76
2017-12-19T12:46:18.154Z,6.66
2017-12-19T12:47:18.074Z,6.66
2017-12-19T12:48:17.989Z,6.63
2017-12-19T12:49:17.897Z,6.76
2017-12-19T12:50:17.805Z,6.73
2017-12-19T12:51:17.714Z,6.86
2017-12-19T12:52:17.630Z,6.81
2017-12-19T12:53:17.550Z,6.71
2017-12-19T12:54:17.458Z,6.68
2017-12-19T12:55:17.372Z,6.76
2017-12-19T12:56:17.283Z,6.68
2017-12-19T12:57:17.200Z,6.65
2017-12-19T12:58:17.110Z,6.72
2017-12-19T12:59:17.036Z,6.71
2017-12-19T13:00:16.941Z,6.66
2017-12-19T13:01:16.848Z,6.62
2017-12-19T13:02:16.766Z,6.65
2017-12-19T13:03:16.674Z,6.63
2017-12-19T13:04:16.592Z,6.79
2017-12-19T13:05:16.503Z,6.81
2017-12-19T13:06:16.425Z,6.91
2017-12-19T13:07:16.325Z,6.84
2017-12-19T13:08:16.248Z,6.90
2017-12-19T13:09:16.172Z,6.98
2017-12-19T13:10:16.064Z,7.09
2017-12-19T13:11:15.983Z,6.99
2017-12-19T13:12:15.901Z,7.05
2017-12-19T13:13:15.802Z,6.95
2017-12-19T13:14:15.716Z,6.89
2017-12-19T13:15:15.621Z,6.89
2017-12-19T13:16:15.540Z,6.95
2017-12-19T13:17:15.449Z,6.86